sensor_id;sensor_type;location;lat;lon;timestamp;P1;durP1;ratioP1;P2;durP2;ratioP2
22679;SDS011;11507;44.858;10.374;2023-08-01T00:01:57;6.00;;;3.75;;
22679;SDS011;11507;44.858;10.374;2023-08-01T00:04:23;5.32;;;3.70;;
22679;SDS011;11507;44.858;10.374;2023-08-01T00:06:49;7.78;;;3.90;;
22679;SDS011;11507;44.858;10.374;2023-08-01T00:09:15;7.72;;;3.95;;
22679;SDS011;11507;44.858;10.374;2023-08-01T00:11:41;9.23;;;4.07;;
22679;SDS011;11507;44.858;10.374;2023-08-01T00:14:07;7.95;;;3.92;;
22679;SDS011;11507;44.858;10.374;2023-08-01T00:16:33;7.10;;;3.92;;
22679;SDS011;11507;44.858;10.374;2023-08-01T00:18:59;7.10;;;3.78;;
22679;SDS011;11507;44.858;10.374;2023-08-01T00:21:25;5.97;;;3.75;;
22679;SDS011;11507;44.858;10.374;2023-08-01T00:23:51;7.97;;;4.25;;
22679;SDS011;11507;44.858;10.374;2023-08-01T00:26:17;11.35;;;4.05;;
22679;SDS011;11507;44.858;10.374;2023-08-01T00:28:43;9.85;;;4.22;;
22679;SDS011;11507;44.858;10.374;2023-08-01T00:31:08;9.70;;;4.20;;
22679;SDS011;11507;44.858;10.374;2023-08-01T00:33:34;9.82;;;4.53;;
22679;SDS011;11507;44.858;10.374;2023-08-01T00:36:00;7.38;;;4.25;;
22679;SDS011;11507;44.858;10.374;2023-08-01T00:38:26;11.27;;;4.50;;
22679;SDS011;11507;44.858;10.374;2023-08-01T00:40:52;10.15;;;4.50;;
22679;SDS011;11507;44.858;10.374;2023-08-01T00:43:19;7.55;;;4.25;;
22679;SDS011;11507;44.858;10.374;2023-08-01T00:45:45;9.52;;;4.40;;
22679;SDS011;11507;44.858;10.374;2023-08-01T00:48:11;9.57;;;4.75;;
22679;SDS011;11507;44.858;10.374;2023-08-01T00:50:38;8.32;;;5.00;;
22679;SDS011;11507;44.858;10.374;2023-08-01T00:53:05;7.80;;;4.90;;
22679;SDS011;11507;44.858;10.374;2023-08-01T00:55:31;9.25;;;4.72;;
22679;SDS011;11507;44.858;10.374;2023-08-01T00:57:59;13.27;;;5.25;;
22679;SDS011;11507;44.858;10.374;2023-08-01T01:00:25;7.43;;;4.93;;
22679;SDS011;11507;44.858;10.374;2023-08-01T01:02:51;10.85;;;5.10;;
22679;SDS011;11507;44.858;10.374;2023-08-01T01:05:18;9.27;;;5.65;;
22679;SDS011;11507;44.858;10.374;2023-08-01T01:07:45;9.70;;;5.57;;
22679;SDS011;11507;44.858;10.374;2023-08-01T01:10:11;7.97;;;5.43;;
22679;SDS011;11507;44.858;10.374;2023-08-01T01:12:38;9.32;;;5.68;;
22679;SDS011;11507;44.858;10.374;2023-08-01T01:15:04;10.60;;;5.85;;
22679;SDS011;11507;44.858;10.374;2023-08-01T01:17:30;11.13;;;5.00;;
22679;SDS011;11507;44.858;10.374;2023-08-01T01:19:56;9.85;;;5.40;;
22679;SDS011;11507;44.858;10.374;2023-08-01T01:22:23;9.95;;;4.75;;
22679;SDS011;11507;44.858;10.374;2023-08-01T01:24:50;8.13;;;5.30;;
22679;SDS011;11507;44.858;10.374;2023-08-01T01:27:18;9.38;;;5.75;;
22679;SDS011;11507;44.858;10.374;2023-08-01T01:29:44;10.00;;;5.55;;
22679;SDS011;11507;44.858;10.374;2023-08-01T01:32:11;9.13;;;5.28;;
22679;SDS011;11507;44.858;10.374;2023-08-01T01:34:37;9.30;;;4.70;;
22679;SDS011;11507;44.858;10.374;2023-08-01T01:37:03;8.77;;;5.28;;
22679;SDS011;11507;44.858;10.374;2023-08-01T01:39:30;8.88;;;5.78;;
22679;SDS011;11507;44.858;10.374;2023-08-01T01:41:56;9.15;;;5.85;;
22679;SDS011;11507;44.858;10.374;2023-08-01T01:44:21;9.02;;;5.70;;
22679;SDS011;11507;44.858;10.374;2023-08-01T01:46:47;8.68;;;5.05;;
22679;SDS011;11507;44.858;10.374;2023-08-01T01:49:14;10.63;;;6.22;;
22679;SDS011;11507;44.858;10.374;2023-08-01T01:51:40;9.65;;;5.38;;
22679;SDS011;11507;44.858;10.374;2023-08-01T01:54:06;9.07;;;5.90;;
22679;SDS011;11507;44.858;10.374;2023-08-01T01:56:32;11.40;;;6.97;;
22679;SDS011;11507;44.858;10.374;2023-08-01T01:58:59;9.50;;;6.20;;
22679;SDS011;11507;44.858;10.374;2023-08-01T02:01:25;9.25;;;6.35;;
22679;SDS011;11507;44.858;10.374;2023-08-01T02:03:51;11.10;;;6.55;;
22679;SDS011;11507;44.858;10.374;2023-08-01T02:06:16;9.32;;;6.53;;
22679;SDS011;11507;44.858;10.374;2023-08-01T02:08:43;10.73;;;6.35;;
22679;SDS011;11507;44.858;10.374;2023-08-01T02:11:09;10.05;;;6.45;;
22679;SDS011;11507;44.858;10.374;2023-08-01T02:13:34;10.45;;;7.05;;
22679;SDS011;11507;44.858;10.374;2023-08-01T02:16:00;10.55;;;7.30;;
22679;SDS011;11507;44.858;10.374;2023-08-01T02:18:26;13.23;;;6.40;;
22679;SDS011;11507;44.858;10.374;2023-08-01T02:20:52;13.60;;;6.82;;
22679;SDS011;11507;44.858;10.374;2023-08-01T02:23:19;11.18;;;6.60;;
22679;SDS011;11507;44.858;10.374;2023-08-01T02:25:44;13.23;;;7.00;;
22679;SDS011;11507;44.858;10.374;2023-08-01T02:28:10;10.57;;;6.10;;
22679;SDS011;11507;44.858;10.374;2023-08-01T02:30:37;10.20;;;5.93;;
22679;SDS011;11507;44.858;10.374;2023-08-01T02:33:03;12.25;;;5.97;;
22679;SDS011;11507;44.858;10.374;2023-08-01T02:35:29;10.80;;;5.68;;
22679;SDS011;11507;44.858;10.374;2023-08-01T02:37:56;11.18;;;6.13;;
22679;SDS011;11507;44.858;10.374;2023-08-01T02:40:21;12.13;;;6.60;;
22679;SDS011;11507;44.858;10.374;2023-08-01T02:42:47;8.65;;;5.88;;
22679;SDS011;11507;44.858;10.374;2023-08-01T02:45:14;8.88;;;5.82;;
22679;SDS011;11507;44.858;10.374;2023-08-01T02:47:41;8.35;;;5.82;;
22679;SDS011;11507;44.858;10.374;2023-08-01T02:50:09;8.27;;;5.30;;
22679;SDS011;11507;44.858;10.374;2023-08-01T02:52:36;15.02;;;5.95;;
22679;SDS011;11507;44.858;10.374;2023-08-01T02:55:04;7.90;;;5.68;;
22679;SDS011;11507;44.858;10.374;2023-08-01T02:57:30;9.15;;;5.40;;
22679;SDS011;11507;44.858;10.374;2023-08-01T02:59:57;8.93;;;6.18;;
22679;SDS011;11507;44.858;10.374;2023-08-01T03:02:24;11.20;;;6.20;;
22679;SDS011;11507;44.858;10.374;2023-08-01T03:04:52;7.93;;;5.57;;
22679;SDS011;11507;44.858;10.374;2023-08-01T03:07:19;11.32;;;6.35;;
22679;SDS011;11507;44.858;10.374;2023-08-01T03:09:46;11.50;;;5.57;;
22679;SDS011;11507;44.858;10.374;2023-08-01T03:12:12;9.18;;;5.13;;
22679;SDS011;11507;44.858;10.374;2023-08-01T03:14:39;8.45;;;5.40;;
22679;SDS011;11507;44.858;10.374;2023-08-01T03:17:08;11.18;;;5.88;;
22679;SDS011;11507;44.858;10.374;2023-08-01T03:19:35;9.95;;;5.50;;
22679;SDS011;11507;44.858;10.374;2023-08-01T03:22:01;8.75;;;5.35;;
22679;SDS011;11507;44.858;10.374;2023-08-01T03:24:28;11.57;;;5.93;;
22679;SDS011;11507;44.858;10.374;2023-08-01T03:26:54;12.05;;;5.28;;
22679;SDS011;11507;44.858;10.374;2023-08-01T03:29:21;7.75;;;4.88;;
22679;SDS011;11507;44.858;10.374;2023-08-01T03:31:48;7.63;;;5.00;;
22679;SDS011;11507;44.858;10.374;2023-08-01T03:34:14;7.40;;;4.60;;
22679;SDS011;11507;44.858;10.374;2023-08-01T03:36:40;9.38;;;4.53;;
22679;SDS011;11507;44.858;10.374;2023-08-01T03:39:05;8.80;;;4.43;;
22679;SDS011;11507;44.858;10.374;2023-08-01T03:41:32;5.90;;;3.85;;
22679;SDS011;11507;44.858;10.374;2023-08-01T03:43:59;7.18;;;3.90;;
22679;SDS011;11507;44.858;10.374;2023-08-01T03:46:26;8.13;;;4.22;;
22679;SDS011;11507;44.858;10.374;2023-08-01T03:48:52;6.35;;;3.97;;
22679;SDS011;11507;44.858;10.374;2023-08-01T03:51:18;8.15;;;4.20;;
22679;SDS011;11507;44.858;10.374;2023-08-01T03:53:45;7.85;;;3.78;;
22679;SDS011;11507;44.858;10.374;2023-08-01T03:56:12;9.23;;;4.10;;
22679;SDS011;11507;44.858;10.374;2023-08-01T03:58:37;8.40;;;3.70;;
22679;SDS011;11507;44.858;10.374;2023-08-01T04:01:03;7.25;;;3.60;;
22679;SDS011;11507;44.858;10.374;2023-08-01T04:03:31;9.10;;;3.83;;
22679;SDS011;11507;44.858;10.374;2023-08-01T04:05:57;10.25;;;4.07;;
22679;SDS011;11507;44.858;10.374;2023-08-01T04:08:23;8.23;;;3.72;;
22679;SDS011;11507;44.858;10.374;2023-08-01T04:10:49;8.25;;;3.63;;
22679;SDS011;11507;44.858;10.374;2023-08-01T04:13:18;6.82;;;3.80;;
22679;SDS011;11507;44.858;10.374;2023-08-01T04:15:43;7.15;;;3.78;;
22679;SDS011;11507;44.858;10.374;2023-08-01T04:18:09;7.97;;;3.85;;
22679;SDS011;11507;44.858;10.374;2023-08-01T04:20:35;6.63;;;4.00;;
22679;SDS011;11507;44.858;10.374;2023-08-01T04:23:01;9.40;;;4.55;;
22679;SDS011;11507;44.858;10.374;2023-08-01T04:25:26;13.88;;;4.57;;
22679;SDS011;11507;44.858;10.374;2023-08-01T04:27:52;8.23;;;3.95;;
22679;SDS011;11507;44.858;10.374;2023-08-01T04:30:18;7.30;;;4.15;;
22679;SDS011;11507;44.858;10.374;2023-08-01T04:32:44;6.25;;;3.55;;
22679;SDS011;11507;44.858;10.374;2023-08-01T04:35:10;8.52;;;4.00;;
22679;SDS011;11507;44.858;10.374;2023-08-01T04:37:36;6.40;;;3.90;;
22679;SDS011;11507;44.858;10.374;2023-08-01T04:40:02;6.88;;;3.95;;
22679;SDS011;11507;44.858;10.374;2023-08-01T04:42:28;6.60;;;3.70;;
22679;SDS011;11507;44.858;10.374;2023-08-01T04:44:55;8.90;;;3.67;;
22679;SDS011;11507;44.858;10.374;2023-08-01T04:47:21;7.50;;;3.58;;
22679;SDS011;11507;44.858;10.374;2023-08-01T04:49:47;7.40;;;4.55;;
22679;SDS011;11507;44.858;10.374;2023-08-01T04:52:13;7.93;;;4.10;;
22679;SDS011;11507;44.858;10.374;2023-08-01T04:54:38;6.82;;;4.18;;
22679;SDS011;11507;44.858;10.374;2023-08-01T04:57:04;9.82;;;4.07;;
22679;SDS011;11507;44.858;10.374;2023-08-01T04:59:30;10.43;;;5.00;;
22679;SDS011;11507;44.858;10.374;2023-08-01T05:01:56;7.07;;;4.40;;
22679;SDS011;11507;44.858;10.374;2023-08-01T05:04:22;8.85;;;4.75;;
22679;SDS011;11507;44.858;10.374;2023-08-01T05:06:48;12.32;;;4.75;;
22679;SDS011;11507;44.858;10.374;2023-08-01T05:09:13;9.68;;;4.50;;
22679;SDS011;11507;44.858;10.374;2023-08-01T05:11:39;11.68;;;4.50;;
22679;SDS011;11507;44.858;10.374;2023-08-01T05:14:05;10.00;;;3.92;;
22679;SDS011;11507;44.858;10.374;2023-08-01T05:16:31;9.43;;;4.38;;
22679;SDS011;11507;44.858;10.374;2023-08-01T05:18:56;7.75;;;4.43;;
22679;SDS011;11507;44.858;10.374;2023-08-01T05:21:22;10.68;;;4.25;;
22679;SDS011;11507;44.858;10.374;2023-08-01T05:23:48;8.60;;;4.20;;
22679;SDS011;11507;44.858;10.374;2023-08-01T05:26:14;8.35;;;4.10;;
22679;SDS011;11507;44.858;10.374;2023-08-01T05:28:40;7.50;;;4.45;;
22679;SDS011;11507;44.858;10.374;2023-08-01T05:31:05;9.98;;;4.47;;
22679;SDS011;11507;44.858;10.374;2023-08-01T05:33:31;8.32;;;4.80;;
22679;SDS011;11507;44.858;10.374;2023-08-01T05:35:57;6.43;;;4.43;;
22679;SDS011;11507;44.858;10.374;2023-08-01T05:38:22;10.40;;;4.68;;
22679;SDS011;11507;44.858;10.374;2023-08-01T05:40:48;6.03;;;3.80;;
22679;SDS011;11507;44.858;10.374;2023-08-01T05:43:14;7.95;;;4.22;;
22679;SDS011;11507;44.858;10.374;2023-08-01T05:45:40;7.28;;;4.40;;
22679;SDS011;11507;44.858;10.374;2023-08-01T05:48:05;6.90;;;3.78;;
22679;SDS011;11507;44.858;10.374;2023-08-01T05:50:31;9.70;;;4.03;;
22679;SDS011;11507;44.858;10.374;2023-08-01T05:52:57;9.88;;;3.95;;
22679;SDS011;11507;44.858;10.374;2023-08-01T05:55:23;6.90;;;3.90;;
22679;SDS011;11507;44.858;10.374;2023-08-01T05:57:48;8.50;;;3.80;;
22679;SDS011;11507;44.858;10.374;2023-08-01T06:00:18;7.07;;;3.53;;
22679;SDS011;11507;44.858;10.374;2023-08-01T06:02:47;11.32;;;4.00;;
22679;SDS011;11507;44.858;10.374;2023-08-01T06:05:13;7.30;;;3.65;;
22679;SDS011;11507;44.858;10.374;2023-08-01T06:07:39;8.38;;;4.10;;
22679;SDS011;11507;44.858;10.374;2023-08-01T06:10:04;10.88;;;4.00;;
22679;SDS011;11507;44.858;10.374;2023-08-01T06:12:30;8.90;;;4.25;;
22679;SDS011;11507;44.858;10.374;2023-08-01T06:14:56;6.45;;;4.03;;
22679;SDS011;11507;44.858;10.374;2023-08-01T06:17:22;7.95;;;3.60;;
22679;SDS011;11507;44.858;10.374;2023-08-01T06:19:48;9.50;;;4.57;;
22679;SDS011;11507;44.858;10.374;2023-08-01T06:22:15;14.45;;;4.90;;
22679;SDS011;11507;44.858;10.374;2023-08-01T06:24:41;10.73;;;4.65;;
22679;SDS011;11507;44.858;10.374;2023-08-01T06:27:06;7.10;;;4.35;;
22679;SDS011;11507;44.858;10.374;2023-08-01T06:29:32;13.32;;;4.60;;
22679;SDS011;11507;44.858;10.374;2023-08-01T06:31:58;9.25;;;4.30;;
22679;SDS011;11507;44.858;10.374;2023-08-01T06:34:24;12.48;;;4.35;;
22679;SDS011;11507;44.858;10.374;2023-08-01T06:36:50;9.30;;;4.82;;
22679;SDS011;11507;44.858;10.374;2023-08-01T06:39:16;7.88;;;4.38;;
22679;SDS011;11507;44.858;10.374;2023-08-01T06:41:41;67.47;;;33.65;;
22679;SDS011;11507;44.858;10.374;2023-08-01T06:44:07;121.38;;;62.15;;
22679;SDS011;11507;44.858;10.374;2023-08-01T06:46:33;248.38;;;118.55;;
22679;SDS011;11507;44.858;10.374;2023-08-01T06:48:59;407.70;;;197.95;;
22679;SDS011;11507;44.858;10.374;2023-08-01T06:51:25;177.45;;;78.25;;
22679;SDS011;11507;44.858;10.374;2023-08-01T06:53:50;290.20;;;123.75;;
22679;SDS011;11507;44.858;10.374;2023-08-01T06:56:16;89.28;;;40.10;;
22679;SDS011;11507;44.858;10.374;2023-08-01T06:58:42;63.20;;;29.40;;
22679;SDS011;11507;44.858;10.374;2023-08-01T07:01:08;50.72;;;21.92;;
22679;SDS011;11507;44.858;10.374;2023-08-01T07:03:33;40.92;;;16.00;;
22679;SDS011;11507;44.858;10.374;2023-08-01T07:05:59;22.08;;;10.43;;
22679;SDS011;11507;44.858;10.374;2023-08-01T07:08:26;13.32;;;6.70;;
22679;SDS011;11507;44.858;10.374;2023-08-01T07:10:51;132.18;;;10.15;;
22679;SDS011;11507;44.858;10.374;2023-08-01T07:13:17;49.35;;;7.28;;
22679;SDS011;11507;44.858;10.374;2023-08-01T07:15:44;12.32;;;3.25;;
22679;SDS011;11507;44.858;10.374;2023-08-01T07:18:10;4.38;;;2.38;;
22679;SDS011;11507;44.858;10.374;2023-08-01T07:20:36;6.78;;;2.97;;
22679;SDS011;11507;44.858;10.374;2023-08-01T07:23:02;7.45;;;2.80;;
22679;SDS011;11507;44.858;10.374;2023-08-01T07:25:28;5.82;;;2.95;;
22679;SDS011;11507;44.858;10.374;2023-08-01T07:27:53;11.93;;;3.00;;
22679;SDS011;11507;44.858;10.374;2023-08-01T07:30:19;8.75;;;3.78;;
22679;SDS011;11507;44.858;10.374;2023-08-01T07:32:45;6.93;;;3.40;;
22679;SDS011;11507;44.858;10.374;2023-08-01T07:35:12;7.07;;;3.30;;
22679;SDS011;11507;44.858;10.374;2023-08-01T07:37:39;8.07;;;3.70;;
22679;SDS011;11507;44.858;10.374;2023-08-01T07:40:07;7.85;;;3.50;;
22679;SDS011;11507;44.858;10.374;2023-08-01T07:42:34;6.38;;;3.53;;
22679;SDS011;11507;44.858;10.374;2023-08-01T07:44:59;7.43;;;3.85;;
22679;SDS011;11507;44.858;10.374;2023-08-01T07:47:25;7.90;;;3.58;;
22679;SDS011;11507;44.858;10.374;2023-08-01T07:49:51;8.65;;;4.05;;
22679;SDS011;11507;44.858;10.374;2023-08-01T07:52:17;10.45;;;4.78;;
22679;SDS011;11507;44.858;10.374;2023-08-01T07:54:43;9.05;;;4.20;;
22679;SDS011;11507;44.858;10.374;2023-08-01T07:57:11;12.45;;;4.78;;
22679;SDS011;11507;44.858;10.374;2023-08-01T07:59:37;8.57;;;4.38;;
22679;SDS011;11507;44.858;10.374;2023-08-01T08:02:03;7.43;;;4.35;;
22679;SDS011;11507;44.858;10.374;2023-08-01T08:04:30;13.13;;;4.40;;
22679;SDS011;11507;44.858;10.374;2023-08-01T08:06:56;10.32;;;4.45;;
22679;SDS011;11507;44.858;10.374;2023-08-01T08:09:25;12.32;;;4.72;;
22679;SDS011;11507;44.858;10.374;2023-08-01T08:11:52;11.70;;;5.22;;
22679;SDS011;11507;44.858;10.374;2023-08-01T08:14:17;9.93;;;4.53;;
22679;SDS011;11507;44.858;10.374;2023-08-01T08:16:45;10.32;;;4.70;;
22679;SDS011;11507;44.858;10.374;2023-08-01T08:19:11;10.40;;;5.13;;
22679;SDS011;11507;44.858;10.374;2023-08-01T08:21:37;8.90;;;4.90;;
22679;SDS011;11507;44.858;10.374;2023-08-01T08:24:02;11.45;;;5.03;;
22679;SDS011;11507;44.858;10.374;2023-08-01T08:26:28;10.20;;;4.80;;
22679;SDS011;11507;44.858;10.374;2023-08-01T08:28:54;10.30;;;4.82;;
22679;SDS011;11507;44.858;10.374;2023-08-01T08:31:20;9.68;;;4.68;;
22679;SDS011;11507;44.858;10.374;2023-08-01T08:33:45;9.52;;;4.32;;
22679;SDS011;11507;44.858;10.374;2023-08-01T08:36:11;9.38;;;4.20;;
22679;SDS011;11507;44.858;10.374;2023-08-01T08:38:37;8.90;;;3.95;;
22679;SDS011;11507;44.858;10.374;2023-08-01T08:41:09;8.07;;;3.72;;
22679;SDS011;11507;44.858;10.374;2023-08-01T08:43:38;11.35;;;3.40;;
22679;SDS011;11507;44.858;10.374;2023-08-01T08:46:06;7.97;;;4.10;;
22679;SDS011;11507;44.858;10.374;2023-08-01T08:48:34;7.45;;;3.55;;
22679;SDS011;11507;44.858;10.374;2023-08-01T08:51:02;10.00;;;3.85;;
22679;SDS011;11507;44.858;10.374;2023-08-01T08:53:30;8.40;;;3.55;;
22679;SDS011;11507;44.858;10.374;2023-08-01T08:55:56;11.38;;;3.88;;
22679;SDS011;11507;44.858;10.374;2023-08-01T08:58:23;7.78;;;3.80;;
22679;SDS011;11507;44.858;10.374;2023-08-01T09:00:48;7.88;;;3.83;;
22679;SDS011;11507;44.858;10.374;2023-08-01T09:03:15;8.85;;;3.80;;
22679;SDS011;11507;44.858;10.374;2023-08-01T09:05:45;5.78;;;3.83;;
22679;SDS011;11507;44.858;10.374;2023-08-01T09:08:21;12.35;;;4.70;;
22679;SDS011;11507;44.858;10.374;2023-08-01T09:10:49;8.05;;;4.20;;
22679;SDS011;11507;44.858;10.374;2023-08-01T09:13:15;7.60;;;3.70;;
22679;SDS011;11507;44.858;10.374;2023-08-01T09:15:41;7.43;;;3.80;;
22679;SDS011;11507;44.858;10.374;2023-08-01T09:18:10;7.60;;;3.80;;
22679;SDS011;11507;44.858;10.374;2023-08-01T09:20:46;9.18;;;4.00;;
22679;SDS011;11507;44.858;10.374;2023-08-01T09:23:12;9.70;;;4.10;;
22679;SDS011;11507;44.858;10.374;2023-08-01T09:25:39;8.25;;;3.90;;
22679;SDS011;11507;44.858;10.374;2023-08-01T09:28:16;7.95;;;3.88;;
22679;SDS011;11507;44.858;10.374;2023-08-01T09:30:46;11.45;;;4.30;;
22679;SDS011;11507;44.858;10.374;2023-08-01T09:33:20;8.85;;;4.00;;
22679;SDS011;11507;44.858;10.374;2023-08-01T09:35:50;7.32;;;3.70;;
22679;SDS011;11507;44.858;10.374;2023-08-01T09:38:18;9.45;;;4.10;;
22679;SDS011;11507;44.858;10.374;2023-08-01T09:40:44;10.38;;;3.72;;
22679;SDS011;11507;44.858;10.374;2023-08-01T09:43:11;9.20;;;3.97;;
22679;SDS011;11507;44.858;10.374;2023-08-01T09:45:48;8.20;;;3.78;;
22679;SDS011;11507;44.858;10.374;2023-08-01T09:48:22;7.05;;;4.40;;
22679;SDS011;11507;44.858;10.374;2023-08-01T09:50:50;7.10;;;3.97;;
22679;SDS011;11507;44.858;10.374;2023-08-01T09:53:16;7.15;;;3.92;;
22679;SDS011;11507;44.858;10.374;2023-08-01T09:55:42;7.05;;;4.18;;
22679;SDS011;11507;44.858;10.374;2023-08-01T09:58:11;8.05;;;3.83;;
22679;SDS011;11507;44.858;10.374;2023-08-01T10:00:39;8.55;;;3.90;;
22679;SDS011;11507;44.858;10.374;2023-08-01T10:03:05;6.38;;;3.95;;
22679;SDS011;11507;44.858;10.374;2023-08-01T10:05:32;10.10;;;4.35;;
22679;SDS011;11507;44.858;10.374;2023-08-01T10:07:59;7.88;;;3.75;;
22679;SDS011;11507;44.858;10.374;2023-08-01T10:10:26;11.05;;;3.83;;
22679;SDS011;11507;44.858;10.374;2023-08-01T10:12:54;8.63;;;4.43;;
22679;SDS011;11507;44.858;10.374;2023-08-01T10:15:24;8.88;;;4.20;;
22679;SDS011;11507;44.858;10.374;2023-08-01T10:17:51;10.68;;;4.20;;
22679;SDS011;11507;44.858;10.374;2023-08-01T10:20:18;7.35;;;3.92;;
22679;SDS011;11507;44.858;10.374;2023-08-01T10:22:46;9.70;;;4.18;;
22679;SDS011;11507;44.858;10.374;2023-08-01T10:25:15;9.30;;;4.38;;
22679;SDS011;11507;44.858;10.374;2023-08-01T10:27:43;8.52;;;4.32;;
22679;SDS011;11507;44.858;10.374;2023-08-01T10:30:08;6.75;;;3.80;;
22679;SDS011;11507;44.858;10.374;2023-08-01T10:32:35;7.07;;;3.90;;
22679;SDS011;11507;44.858;10.374;2023-08-01T10:35:02;9.07;;;3.72;;
22679;SDS011;11507;44.858;10.374;2023-08-01T10:37:39;8.13;;;4.50;;
22679;SDS011;11507;44.858;10.374;2023-08-01T10:40:06;10.43;;;4.28;;
22679;SDS011;11507;44.858;10.374;2023-08-01T10:42:42;9.55;;;4.30;;
22679;SDS011;11507;44.858;10.374;2023-08-01T10:45:24;7.65;;;4.07;;
22679;SDS011;11507;44.858;10.374;2023-08-01T10:47:52;8.48;;;4.10;;
22679;SDS011;11507;44.858;10.374;2023-08-01T10:50:18;9.55;;;4.22;;
22679;SDS011;11507;44.858;10.374;2023-08-01T10:52:44;7.82;;;4.25;;
22679;SDS011;11507;44.858;10.374;2023-08-01T10:55:11;10.20;;;4.40;;
22679;SDS011;11507;44.858;10.374;2023-08-01T10:57:47;11.18;;;5.20;;
22679;SDS011;11507;44.858;10.374;2023-08-01T11:00:15;9.95;;;4.80;;
22679;SDS011;11507;44.858;10.374;2023-08-01T11:02:48;7.10;;;4.53;;
22679;SDS011;11507;44.858;10.374;2023-08-01T11:05:17;10.20;;;4.63;;
22679;SDS011;11507;44.858;10.374;2023-08-01T11:07:52;11.65;;;4.65;;
22679;SDS011;11507;44.858;10.374;2023-08-01T11:10:20;8.02;;;4.60;;
22679;SDS011;11507;44.858;10.374;2023-08-01T11:12:45;8.40;;;4.70;;
22679;SDS011;11507;44.858;10.374;2023-08-01T11:15:12;9.77;;;5.18;;
22679;SDS011;11507;44.858;10.374;2023-08-01T11:17:40;7.30;;;4.60;;
22679;SDS011;11507;44.858;10.374;2023-08-01T11:20:11;8.55;;;4.47;;
22679;SDS011;11507;44.858;10.374;2023-08-01T11:22:38;11.07;;;4.75;;
22679;SDS011;11507;44.858;10.374;2023-08-01T11:25:32;9.48;;;4.57;;
22679;SDS011;11507;44.858;10.374;2023-08-01T11:28:06;8.13;;;4.38;;
22679;SDS011;11507;44.858;10.374;2023-08-01T11:35:28;8.65;;;4.38;;
22679;SDS011;11507;44.858;10.374;2023-08-01T11:37:54;10.40;;;4.43;;
22679;SDS011;11507;44.858;10.374;2023-08-01T11:40:21;9.93;;;4.32;;
22679;SDS011;11507;44.858;10.374;2023-08-01T11:42:48;11.00;;;4.60;;
22679;SDS011;11507;44.858;10.374;2023-08-01T11:45:16;9.75;;;4.43;;
22679;SDS011;11507;44.858;10.374;2023-08-01T11:47:46;8.90;;;4.40;;
22679;SDS011;11507;44.858;10.374;2023-08-01T11:50:14;8.70;;;4.38;;
22679;SDS011;11507;44.858;10.374;2023-08-01T11:52:46;7.82;;;4.15;;
22679;SDS011;11507;44.858;10.374;2023-08-01T11:55:22;9.18;;;4.35;;
22679;SDS011;11507;44.858;10.374;2023-08-01T11:57:53;9.73;;;5.00;;
22679;SDS011;11507;44.858;10.374;2023-08-01T12:00:25;8.40;;;4.32;;
22679;SDS011;11507;44.858;10.374;2023-08-01T12:03:02;8.27;;;4.20;;
22679;SDS011;11507;44.858;10.374;2023-08-01T12:05:29;10.35;;;4.80;;
22679;SDS011;11507;44.858;10.374;2023-08-01T12:07:55;8.77;;;4.43;;
22679;SDS011;11507;44.858;10.374;2023-08-01T12:10:21;9.45;;;4.55;;
22679;SDS011;11507;44.858;10.374;2023-08-01T12:12:49;10.55;;;4.80;;
22679;SDS011;11507;44.858;10.374;2023-08-01T12:15:15;9.85;;;5.07;;
22679;SDS011;11507;44.858;10.374;2023-08-01T12:17:41;10.18;;;4.47;;
22679;SDS011;11507;44.858;10.374;2023-08-01T12:20:07;9.80;;;4.53;;
22679;SDS011;11507;44.858;10.374;2023-08-01T12:22:33;12.82;;;4.95;;
22679;SDS011;11507;44.858;10.374;2023-08-01T12:24:59;11.85;;;4.80;;
22679;SDS011;11507;44.858;10.374;2023-08-01T12:27:25;10.05;;;4.60;;
22679;SDS011;11507;44.858;10.374;2023-08-01T12:29:50;8.82;;;4.90;;
22679;SDS011;11507;44.858;10.374;2023-08-01T12:32:16;9.70;;;5.20;;
22679;SDS011;11507;44.858;10.374;2023-08-01T12:34:42;11.93;;;4.68;;
22679;SDS011;11507;44.858;10.374;2023-08-01T12:37:08;10.27;;;4.18;;
22679;SDS011;11507;44.858;10.374;2023-08-01T12:39:33;8.98;;;4.55;;
22679;SDS011;11507;44.858;10.374;2023-08-01T12:41:59;7.97;;;4.43;;
22679;SDS011;11507;44.858;10.374;2023-08-01T12:44:25;12.50;;;4.28;;
22679;SDS011;11507;44.858;10.374;2023-08-01T12:46:51;9.52;;;4.10;;
22679;SDS011;11507;44.858;10.374;2023-08-01T12:49:17;8.40;;;4.40;;
22679;SDS011;11507;44.858;10.374;2023-08-01T12:51:44;10.45;;;4.78;;
22679;SDS011;11507;44.858;10.374;2023-08-01T12:54:10;11.35;;;4.18;;
22679;SDS011;11507;44.858;10.374;2023-08-01T12:56:37;9.18;;;4.68;;
22679;SDS011;11507;44.858;10.374;2023-08-01T12:59:03;7.78;;;4.20;;
22679;SDS011;11507;44.858;10.374;2023-08-01T13:01:29;9.38;;;4.78;;
22679;SDS011;11507;44.858;10.374;2023-08-01T13:03:54;8.43;;;4.03;;
22679;SDS011;11507;44.858;10.374;2023-08-01T13:06:20;9.05;;;4.28;;
22679;SDS011;11507;44.858;10.374;2023-08-01T13:08:46;8.88;;;4.68;;
22679;SDS011;11507;44.858;10.374;2023-08-01T13:11:12;9.85;;;4.47;;
22679;SDS011;11507;44.858;10.374;2023-08-01T13:13:41;9.13;;;4.45;;
22679;SDS011;11507;44.858;10.374;2023-08-01T13:16:08;11.57;;;4.85;;
22679;SDS011;11507;44.858;10.374;2023-08-01T13:18:34;10.38;;;4.47;;
22679;SDS011;11507;44.858;10.374;2023-08-01T13:21:00;7.45;;;4.43;;
22679;SDS011;11507;44.858;10.374;2023-08-01T13:23:26;10.95;;;4.10;;
22679;SDS011;11507;44.858;10.374;2023-08-01T13:25:52;8.63;;;4.22;;
22679;SDS011;11507;44.858;10.374;2023-08-01T13:28:18;9.98;;;4.03;;
22679;SDS011;11507;44.858;10.374;2023-08-01T13:30:44;11.23;;;4.65;;
22679;SDS011;11507;44.858;10.374;2023-08-01T13:33:09;10.48;;;4.45;;
22679;SDS011;11507;44.858;10.374;2023-08-01T13:35:35;9.15;;;4.63;;
22679;SDS011;11507;44.858;10.374;2023-08-01T13:38:01;9.15;;;4.57;;
22679;SDS011;11507;44.858;10.374;2023-08-01T13:40:28;9.38;;;4.70;;
22679;SDS011;11507;44.858;10.374;2023-08-01T13:42:54;9.77;;;4.53;;
22679;SDS011;11507;44.858;10.374;2023-08-01T13:45:20;8.88;;;4.40;;
22679;SDS011;11507;44.858;10.374;2023-08-01T13:47:46;11.45;;;4.72;;
22679;SDS011;11507;44.858;10.374;2023-08-01T13:50:11;9.38;;;4.80;;
22679;SDS011;11507;44.858;10.374;2023-08-01T13:52:37;11.00;;;4.50;;
22679;SDS011;11507;44.858;10.374;2023-08-01T13:55:03;9.63;;;4.32;;
22679;SDS011;11507;44.858;10.374;2023-08-01T13:57:29;9.63;;;4.60;;
22679;SDS011;11507;44.858;10.374;2023-08-01T13:59:58;8.57;;;4.20;;
22679;SDS011;11507;44.858;10.374;2023-08-01T14:02:24;9.10;;;4.63;;
22679;SDS011;11507;44.858;10.374;2023-08-01T14:04:53;11.93;;;4.82;;
22679;SDS011;11507;44.858;10.374;2023-08-01T14:07:18;9.63;;;4.47;;
22679;SDS011;11507;44.858;10.374;2023-08-01T14:09:44;13.15;;;4.82;;
22679;SDS011;11507;44.858;10.374;2023-08-01T14:12:10;9.90;;;4.47;;
22679;SDS011;11507;44.858;10.374;2023-08-01T14:14:36;9.52;;;4.40;;
22679;SDS011;11507;44.858;10.374;2023-08-01T14:17:02;9.82;;;5.03;;
22679;SDS011;11507;44.858;10.374;2023-08-01T14:19:27;9.50;;;4.50;;
22679;SDS011;11507;44.858;10.374;2023-08-01T14:21:55;10.02;;;4.57;;
22679;SDS011;11507;44.858;10.374;2023-08-01T14:24:22;10.52;;;4.63;;
22679;SDS011;11507;44.858;10.374;2023-08-01T14:26:48;9.60;;;4.60;;
22679;SDS011;11507;44.858;10.374;2023-08-01T14:29:17;11.13;;;4.80;;
22679;SDS011;11507;44.858;10.374;2023-08-01T14:31:47;13.13;;;4.63;;